Time;durP1;ratioP1;P1;durP2;ratioP2;P2;SDS_P1;SDS_P2;PMS_P1;PMS_P2;Temp;Humidity;BMP_temperature;BMP_pressure;BME280_temperature;BME280_humidity;BME280_pressure;Samples;Min_cycle;Max_cycle;Signal;HPM_P1;HPM_P2
2022/03/26 00:01:46;;;;;;;39.53;20.13;;;;;;;;;;4971499;28;20027;-77
2022/03/26 00:04:11;;;;;;;36.65;20.40;;;;;;;;;;4971740;28;20035;-77
2022/03/26 00:06:38;;;;;;;36.90;20.38;;;;;;;;;;4971375;28;20416;-76
2022/03/26 00:09:03;;;;;;;39.85;20.60;;;;;;;;;;4971029;28;20062;-76
2022/03/26 00:11:28;;;;;;;35.70;19.55;;;;;;;;;;4971248;28;20604;-78
2022/03/26 00:13:54;;;;;;;36.83;18.73;;;;;;;;;;4971277;28;20026;-76
2022/03/26 00:16:19;;;;;;;36.03;19.92;;;;;;;;;;4971545;28;20031;-77
2022/03/26 00:18:44;;;;;;;40.78;20.08;;;;;;;;;;4971041;28;20018;-77
2022/03/26 00:21:10;;;;;;;34.67;19.95;;;;;;;;;;4971400;28;20054;-76
2022/03/26 00:23:35;;;;;;;37.03;20.08;;;;;;;;;;4970752;28;20045;-76
2022/03/26 00:26:01;;;;;;;38.88;19.80;;;;;;;;;;4971101;28;20058;-77
2022/03/26 00:28:27;;;;;;;37.97;19.90;;;;;;;;;;4971035;28;20066;-76
2022/03/26 00:30:53;;;;;;;39.42;20.70;;;;;;;;;;4971294;28;20035;-77
2022/03/26 00:33:18;;;;;;;41.38;21.00;;;;;;;;;;4970670;28;20062;-76
2022/03/26 00:35:45;;;;;;;36.75;20.02;;;;;;;;;;4969597;28;20022;-76
2022/03/26 00:38:10;;;;;;;37.42;20.17;;;;;;;;;;4970537;28;20103;-77
2022/03/26 00:40:36;;;;;;;35.83;19.73;;;;;;;;;;4970857;28;20035;-78
2022/03/26 00:43:02;;;;;;;34.72;19.85;;;;;;;;;;4970661;28;20030;-77
2022/03/26 00:45:29;;;;;;;39.08;20.38;;;;;;;;;;4971000;28;20074;-77
2022/03/26 00:47:55;;;;;;;37.88;19.98;;;;;;;;;;4970635;28;20038;-77
2022/03/26 00:50:20;;;;;;;36.25;19.33;;;;;;;;;;4970910;28;20429;-76
2022/03/26 00:52:47;;;;;;;36.08;19.60;;;;;;;;;;4970525;28;20062;-77
2022/03/26 00:55:13;;;;;;;40.72;21.80;;;;;;;;;;4970544;28;20043;-77
2022/03/26 00:57:38;;;;;;;39.00;20.33;;;;;;;;;;4969147;28;20034;-78
2022/03/26 01:00:06;;;;;;;37.05;20.52;;;;;;;;;;4970638;28;20022;-76
2022/03/26 01:02:32;;;;;;;37.67;19.67;;;;;;;;;;4970513;28;20153;-77
2022/03/26 01:04:58;;;;;;;40.72;20.40;;;;;;;;;;4970905;28;20034;-77
2022/03/26 01:07:25;;;;;;;44.22;20.77;;;;;;;;;;4970225;28;20035;-76
2022/03/26 01:09:50;;;;;;;33.50;18.83;;;;;;;;;;4968797;28;20031;-77
2022/03/26 01:12:15;;;;;;;38.03;20.30;;;;;;;;;;4970261;28;20034;-77
2022/03/26 01:14:41;;;;;;;40.13;20.27;;;;;;;;;;4970484;28;20034;-77
2022/03/26 01:17:07;;;;;;;39.17;19.27;;;;;;;;;;4970544;28;20097;-77
2022/03/26 01:19:32;;;;;;;37.40;18.23;;;;;;;;;;4970132;28;20106;-77
2022/03/26 01:21:57;;;;;;;33.83;18.83;;;;;;;;;;4970231;28;20115;-77
2022/03/26 01:24:23;;;;;;;40.38;19.13;;;;;;;;;;4969947;28;20060;-78
2022/03/26 01:26:48;;;;;;;38.08;20.02;;;;;;;;;;4970229;28;20085;-77
2022/03/26 01:29:13;;;;;;;35.47;19.00;;;;;;;;;;4969897;28;20042;-77
2022/03/26 01:31:39;;;;;;;34.45;18.58;;;;;;;;;;4970243;28;20366;-77
2022/03/26 01:34:04;;;;;;;37.90;18.55;;;;;;;;;;4969893;28;20030;-77
2022/03/26 01:36:30;;;;;;;37.53;18.52;;;;;;;;;;4969407;28;20110;-77
2022/03/26 01:38:55;;;;;;;36.63;18.83;;;;;;;;;;4969719;28;20049;-77
2022/03/26 01:41:21;;;;;;;36.75;18.75;;;;;;;;;;4970105;28;20037;-76
2022/03/26 01:43:46;;;;;;;36.95;19.00;;;;;;;;;;4969868;28;20081;-77
2022/03/26 01:46:12;;;;;;;36.35;18.70;;;;;;;;;;4970016;28;20030;-77
2022/03/26 01:48:39;;;;;;;33.03;17.92;;;;;;;;;;4969880;28;20031;-77
2022/03/26 01:51:14;;;;;;;37.15;19.33;;;;;;;;;;4969939;28;20166;-78
2022/03/26 01:53:50;;;;;;;40.30;19.60;;;;;;;;;;4969853;28;20030;-77
2022/03/26 01:56:16;;;;;;;35.13;18.42;;;;;;;;;;4969954;28;20393;-77
2022/03/26 01:58:43;;;;;;;38.60;19.70;;;;;;;;;;4968033;28;20712;-76
2022/03/26 02:01:08;;;;;;;34.72;17.88;;;;;;;;;;4969903;28;20042;-78
2022/03/26 02:03:34;;;;;;;38.83;18.55;;;;;;;;;;4969740;28;20026;-77
2022/03/26 02:05:59;;;;;;;46.00;21.20;;;;;;;;;;4969690;28;20027;-77
2022/03/26 02:08:25;;;;;;;41.75;21.10;;;;;;;;;;4969423;28;20492;-77
2022/03/26 02:10:50;;;;;;;38.92;19.10;;;;;;;;;;4970046;28;20380;-77
2022/03/26 02:13:16;;;;;;;36.95;19.45;;;;;;;;;;4970097;28;20513;-77
2022/03/26 02:15:41;;;;;;;38.05;18.63;;;;;;;;;;4969743;28;20077;-76
2022/03/26 02:18:09;;;;;;;34.08;18.23;;;;;;;;;;4970027;28;20027;-78
2022/03/26 02:20:35;;;;;;;35.65;17.40;;;;;;;;;;4969802;28;20404;-77
2022/03/26 02:23:01;;;;;;;33.15;18.17;;;;;;;;;;4969726;28;20023;-76
2022/03/26 02:25:27;;;;;;;33.60;17.73;;;;;;;;;;4969551;28;20499;-76
2022/03/26 02:27:53;;;;;;;34.40;17.83;;;;;;;;;;4969489;28;20102;-77
2022/03/26 02:30:20;;;;;;;33.65;17.85;;;;;;;;;;4969479;28;20027;-76
2022/03/26 02:32:45;;;;;;;33.60;18.15;;;;;;;;;;4970319;28;20034;-77
2022/03/26 02:35:11;;;;;;;32.75;16.88;;;;;;;;;;4972224;28;20066;-76
2022/03/26 02:37:36;;;;;;;34.47;17.27;;;;;;;;;;4978777;28;20034;-77
2022/03/26 02:40:04;;;;;;;32.70;17.98;;;;;;;;;;4978029;28;20035;-77
2022/03/26 02:42:30;;;;;;;38.92;19.45;;;;;;;;;;4971877;28;20500;-76
2022/03/26 02:44:55;;;;;;;37.97;18.92;;;;;;;;;;4970160;28;20035;-77
2022/03/26 02:47:20;;;;;;;33.33;17.75;;;;;;;;;;4972956;28;20448;-76
2022/03/26 02:49:46;;;;;;;34.95;16.98;;;;;;;;;;4973845;28;20058;-75
2022/03/26 02:52:11;;;;;;;35.78;19.05;;;;;;;;;;4972918;28;20595;-77
2022/03/26 02:54:36;;;;;;;33.97;19.80;;;;;;;;;;4972083;28;20061;-77
2022/03/26 02:57:03;;;;;;;39.53;18.40;;;;;;;;;;4974383;28;20067;-77
2022/03/26 02:59:28;;;;;;;36.58;17.98;;;;;;;;;;4974856;28;20037;-76
2022/03/26 03:01:53;;;;;;;36.05;19.00;;;;;;;;;;4973328;28;20034;-77
2022/03/26 03:04:20;;;;;;;37.13;17.27;;;;;;;;;;4974804;28;20034;-76
2022/03/26 03:06:46;;;;;;;35.47;17.73;;;;;;;;;;4974165;28;20027;-77
2022/03/26 03:09:11;;;;;;;35.35;18.45;;;;;;;;;;4974003;28;20062;-77
2022/03/26 03:11:36;;;;;;;37.75;17.92;;;;;;;;;;4973539;28;20436;-76
2022/03/26 03:14:04;;;;;;;34.78;18.05;;;;;;;;;;4974530;28;20105;-77
2022/03/26 03:16:29;;;;;;;35.33;18.30;;;;;;;;;;4974336;28;20392;-77
2022/03/26 03:18:55;;;;;;;33.17;17.52;;;;;;;;;;4973275;28;20019;-76
2022/03/26 03:21:20;;;;;;;30.67;17.10;;;;;;;;;;4974191;28;20029;-77
2022/03/26 03:23:45;;;;;;;31.83;17.23;;;;;;;;;;4974504;28;20106;-77
2022/03/26 03:26:11;;;;;;;29.73;16.42;;;;;;;;;;4974262;28;20027;-77
2022/03/26 03:28:36;;;;;;;32.88;16.42;;;;;;;;;;4973313;28;20031;-77
2022/03/26 03:31:02;;;;;;;34.95;17.73;;;;;;;;;;4971641;28;20030;-75
2022/03/26 03:33:27;;;;;;;34.35;18.17;;;;;;;;;;4973605;28;20203;-77
2022/03/26 03:35:53;;;;;;;37.28;17.45;;;;;;;;;;4972572;28;20353;-77
2022/03/26 03:38:18;;;;;;;30.42;15.65;;;;;;;;;;4974219;28;20065;-76
2022/03/26 03:40:44;;;;;;;35.33;17.02;;;;;;;;;;4974759;28;20463;-77
2022/03/26 03:43:09;;;;;;;30.92;16.00;;;;;;;;;;4972828;28;20501;-77
2022/03/26 03:45:34;;;;;;;35.38;17.02;;;;;;;;;;4973503;28;20651;-77
2022/03/26 03:48:00;;;;;;;33.83;16.42;;;;;;;;;;4972566;28;20031;-76
2022/03/26 03:50:26;;;;;;;38.17;17.02;;;;;;;;;;4974106;28;20517;-78
2022/03/26 03:52:52;;;;;;;33.10;17.27;;;;;;;;;;4973929;28;20074;-77
2022/03/26 03:55:17;;;;;;;29.60;17.05;;;;;;;;;;4973966;28;20301;-77
2022/03/26 03:57:44;;;;;;;34.63;17.80;;;;;;;;;;4972327;28;20015;-74
2022/03/26 04:00:11;;;;;;;33.50;17.50;;;;;;;;;;4971550;28;20472;-75
2022/03/26 04:02:36;;;;;;;33.47;16.70;;;;;;;;;;4970529;28;20031;-75
2022/03/26 04:05:02;;;;;;;33.13;15.90;;;;;;;;;;4972526;28;20093;-76
2022/03/26 04:07:27;;;;;;;32.50;16.48;;;;;;;;;;4973341;28;20035;-76
2022/03/26 04:09:52;;;;;;;36.50;18.95;;;;;;;;;;4971641;28;20512;-76
2022/03/26 04:12:18;;;;;;;33.35;16.80;;;;;;;;;;4973563;28;20058;-77
2022/03/26 04:14:44;;;;;;;34.83;16.35;;;;;;;;;;4973552;28;20018;-77
2022/03/26 04:17:12;;;;;;;31.88;16.52;;;;;;;;;;4973739;28;20543;-77
2022/03/26 04:19:39;;;;;;;37.90;17.25;;;;;;;;;;4973649;28;20089;-77
2022/03/26 04:22:05;;;;;;;32.25;15.98;;;;;;;;;;4973464;28;20131;-77
2022/03/26 04:24:31;;;;;;;36.08;16.23;;;;;;;;;;4973889;28;20030;-77
2022/03/26 04:26:56;;;;;;;30.85;16.48;;;;;;;;;;4972390;28;20026;-77
2022/03/26 04:29:21;;;;;;;34.40;16.63;;;;;;;;;;4972890;28;20037;-76
2022/03/26 04:31:47;;;;;;;29.20;15.82;;;;;;;;;;4972812;28;20030;-77
2022/03/26 04:34:12;;;;;;;32.42;16.23;;;;;;;;;;4972815;28;20041;-77
2022/03/26 04:36:38;;;;;;;35.55;17.48;;;;;;;;;;4973189;28;20141;-77
2022/03/26 04:39:03;;;;;;;32.92;15.90;;;;;;;;;;4972972;28;20027;-76
2022/03/26 04:41:28;;;;;;;33.08;16.40;;;;;;;;;;4973033;28;20165;-77
2022/03/26 04:43:54;;;;;;;34.67;17.45;;;;;;;;;;4973073;28;20402;-76
2022/03/26 04:46:20;;;;;;;41.28;19.00;;;;;;;;;;4973363;28;20033;-77
2022/03/26 04:48:48;;;;;;;35.92;17.33;;;;;;;;;;4973110;28;20022;-77
2022/03/26 04:51:14;;;;;;;35.20;17.85;;;;;;;;;;4972964;28;20038;-77
2022/03/26 04:53:39;;;;;;;35.13;17.98;;;;;;;;;;4972888;28;20019;-77
2022/03/26 04:56:05;;;;;;;41.08;20.02;;;;;;;;;;4972811;28;20501;-77
2022/03/26 04:58:30;;;;;;;34.28;17.23;;;;;;;;;;4973301;28;20050;-75
2022/03/26 05:00:55;;;;;;;36.53;18.13;;;;;;;;;;4973499;28;20038;-77
2022/03/26 05:03:21;;;;;;;31.42;17.33;;;;;;;;;;4973678;28;20527;-77
2022/03/26 05:05:46;;;;;;;29.52;15.65;;;;;;;;;;4973547;28;20031;-77
2022/03/26 05:08:11;;;;;;;36.40;17.02;;;;;;;;;;4971652;28;20443;-77
2022/03/26 05:10:37;;;;;;;31.92;15.90;;;;;;;;;;4972498;28;20034;-76
2022/03/26 05:13:02;;;;;;;35.75;17.15;;;;;;;;;;4973182;28;20111;-77
2022/03/26 05:15:27;;;;;;;32.53;15.82;;;;;;;;;;4973485;28;20030;-77
2022/03/26 05:17:54;;;;;;;33.38;15.77;;;;;;;;;;4973219;28;20050;-74
2022/03/26 05:20:20;;;;;;;33.45;16.58;;;;;;;;;;4973247;28;20118;-76
2022/03/26 05:22:46;;;;;;;37.20;16.80;;;;;;;;;;4972933;28;20083;-75
2022/03/26 05:25:13;;;;;;;29.60;15.45;;;;;;;;;;4972929;28;20066;-77
2022/03/26 05:27:43;;;;;;;31.33;16.08;;;;;;;;;;4971387;28;20145;-77
2022/03/26 05:30:09;;;;;;;38.30;17.17;;;;;;;;;;4972223;28;20022;-78
2022/03/26 05:32:34;;;;;;;32.95;15.70;;;;;;;;;;4972289;28;20029;-78
2022/03/26 05:35:00;;;;;;;32.17;14.50;;;;;;;;;;4973109;28;20049;-77
2022/03/26 05:37:25;;;;;;;29.48;15.25;;;;;;;;;;4973231;28;20089;-78
2022/03/26 05:39:50;;;;;;;29.98;15.45;;;;;;;;;;4975003;28;20077;-76
2022/03/26 05:42:16;;;;;;;30.25;14.32;;;;;;;;;;4972658;28;20404;-76
2022/03/26 05:44:41;;;;;;;34.17;15.68;;;;;;;;;;4972195;28;20400;-77
2022/03/26 05:47:07;;;;;;;27.60;14.18;;;;;;;;;;4972080;28;20070;-76
2022/03/26 05:49:33;;;;;;;30.67;15.48;;;;;;;;;;4971691;28;20047;-77
2022/03/26 05:51:58;;;;;;;30.80;15.27;;;;;;;;;;4970266;28;20041;-77
2022/03/26 05:54:23;;;;;;;29.50;14.88;;;;;;;;;;4972252;28;20031;-76
2022/03/26 05:56:51;;;;;;;29.27;14.90;;;;;;;;;;4969055;28;20034;-75
2022/03/26 05:59:26;;;;;;;31.42;16.30;;;;;;;;;;4968619;28;20516;-75
2022/03/26 06:01:53;;;;;;;29.45;14.65;;;;;;;;;;4970529;28;20038;-76
2022/03/26 06:04:19;;;;;;;31.55;14.68;;;;;;;;;;4971369;28;20031;-76
2022/03/26 06:06:44;;;;;;;32.35;16.17;;;;;;;;;;4971775;28;20085;-75
2022/03/26 06:09:10;;;;;;;28.38;14.40;;;;;;;;;;4971469;28;20058;-77
2022/03/26 06:11:36;;;;;;;35.30;16.20;;;;;;;;;;4972047;28;20031;-77
2022/03/26 06:14:02;;;;;;;34.25;15.10;;;;;;;;;;4971765;28;20492;-77
2022/03/26 06:16:28;;;;;;;35.10;14.80;;;;;;;;;;4972405;28;20436;-77
2022/03/26 06:18:53;;;;;;;27.95;14.25;;;;;;;;;;4971614;28;20037;-77
2022/03/26 06:21:18;;;;;;;28.88;14.38;;;;;;;;;;4976108;28;20113;-76
2022/03/26 06:23:44;;;;;;;33.13;15.13;;;;;;;;;;4980222;28;20034;-77
2022/03/26 06:26:10;;;;;;;31.15;14.63;;;;;;;;;;4977132;28;20049;-76
2022/03/26 06:28:36;;;;;;;27.13;14.15;;;;;;;;;;4973427;28;20030;-76
2022/03/26 06:31:01;;;;;;;31.13;14.82;;;;;;;;;;4975419;28;20029;-77
2022/03/26 06:33:27;;;;;;;28.58;14.80;;;;;;;;;;4974778;28;20034;-77
2022/03/26 06:35:52;;;;;;;28.38;14.30;;;;;;;;;;4974984;28;20027;-77
2022/03/26 06:38:18;;;;;;;27.35;13.93;;;;;;;;;;4974422;28;20389;-75
2022/03/26 06:40:44;;;;;;;30.15;13.60;;;;;;;;;;4974346;28;20500;-76
2022/03/26 06:43:09;;;;;;;23.80;13.25;;;;;;;;;;4974278;28;20039;-77
2022/03/26 06:45:35;;;;;;;28.08;14.07;;;;;;;;;;4975278;28;20038;-77
2022/03/26 06:48:01;;;;;;;25.40;14.07;;;;;;;;;;4974769;28;20444;-77
2022/03/26 06:50:27;;;;;;;28.08;14.48;;;;;;;;;;4974743;28;20096;-77
2022/03/26 06:52:52;;;;;;;23.80;13.75;;;;;;;;;;4975005;28;20109;-77
2022/03/26 06:55:18;;;;;;;24.95;14.45;;;;;;;;;;4974819;28;20034;-77
2022/03/26 06:57:43;;;;;;;27.88;15.35;;;;;;;;;;4973198;28;20384;-77
2022/03/26 07:00:11;;;;;;;25.13;14.55;;;;;;;;;;4973434;28;20023;-74
2022/03/26 07:02:36;;;;;;;25.55;15.10;;;;;;;;;;4972616;28;20575;-76
2022/03/26 07:05:03;;;;;;;29.77;16.20;;;;;;;;;;4972779;28;20035;-75
2022/03/26 07:07:28;;;;;;;27.60;15.73;;;;;;;;;;4972718;28;20046;-76
2022/03/26 07:09:53;;;;;;;25.23;15.80;;;;;;;;;;4972306;28;20026;-75
2022/03/26 07:12:18;;;;;;;28.25;16.60;;;;;;;;;;4972468;28;20037;-76
2022/03/26 07:14:44;;;;;;;23.42;15.07;;;;;;;;;;4972579;28;20543;-76
2022/03/26 07:17:09;;;;;;;27.75;15.57;;;;;;;;;;4972452;28;20031;-76
2022/03/26 07:19:35;;;;;;;27.55;16.75;;;;;;;;;;4970877;28;20022;-76
2022/03/26 07:22:00;;;;;;;25.45;15.07;;;;;;;;;;4972662;28;20110;-75
2022/03/26 07:24:26;;;;;;;30.70;16.42;;;;;;;;;;4972285;28;20458;-76
2022/03/26 07:26:51;;;;;;;27.15;16.42;;;;;;;;;;4972301;28;20425;-76
2022/03/26 07:29:17;;;;;;;26.15;16.08;;;;;;;;;;4972018;28;20154;-75
2022/03/26 07:31:42;;;;;;;27.52;16.02;;;;;;;;;;4972266;28;20026;-76
2022/03/26 07:34:07;;;;;;;25.80;15.00;;;;;;;;;;4971128;28;20038;-74
2022/03/26 07:36:33;;;;;;;24.77;15.77;;;;;;;;;;4972215;28;20516;-76
2022/03/26 07:38:58;;;;;;;30.33;16.48;;;;;;;;;;4970667;28;20035;-75
2022/03/26 07:41:23;;;;;;;25.50;16.15;;;;;;;;;;4970981;28;20029;-78
2022/03/26 07:43:49;;;;;;;23.52;15.45;;;;;;;;;;4972176;28;20031;-76
2022/03/26 07:46:18;;;;;;;27.10;15.88;;;;;;;;;;4972761;28;20053;-77
2022/03/26 07:48:43;;;;;;;26.48;15.60;;;;;;;;;;4972776;28;20134;-73
2022/03/26 07:51:09;;;;;;;27.30;16.10;;;;;;;;;;4963718;28;20631;-73
2022/03/26 07:53:34;;;;;;;26.35;16.33;;;;;;;;;;4962184;28;20397;-74
2022/03/26 07:55:59;;;;;;;24.55;14.73;;;;;;;;;;4962874;28;20037;-75
2022/03/26 07:58:24;;;;;;;25.40;16.05;;;;;;;;;;4960742;28;20019;-75
2022/03/26 08:00:50;;;;;;;25.05;14.90;;;;;;;;;;4961797;28;20073;-75
2022/03/26 08:03:15;;;;;;;23.42;14.43;;;;;;;;;;4962450;28;20027;-75
2022/03/26 08:05:40;;;;;;;24.65;14.85;;;;;;;;;;4960423;28;20035;-75
2022/03/26 08:08:06;;;;;;;24.25;14.73;;;;;;;;;;4962347;28;20045;-76
2022/03/26 08:10:32;;;;;;;26.58;14.65;;;;;;;;;;4960331;28;20632;-75
2022/03/26 08:12:57;;;;;;;27.60;15.23;;;;;;;;;;4955567;28;20031;-75
2022/03/26 08:15:23;;;;;;;24.42;14.25;;;;;;;;;;4957657;28;20027;-77
2022/03/26 08:17:48;;;;;;;22.60;13.98;;;;;;;;;;4955037;28;20027;-76
2022/03/26 08:20:14;;;;;;;25.17;14.38;;;;;;;;;;4971148;28;20460;-76
2022/03/26 08:22:41;;;;;;;24.52;14.65;;;;;;;;;;4972273;28;20022;-77
2022/03/26 08:25:09;;;;;;;21.88;15.18;;;;;;;;;;4975582;28;20033;-77
2022/03/26 08:27:35;;;;;;;22.50;14.20;;;;;;;;;;4985195;28;20034;-74
2022/03/26 08:30:01;;;;;;;24.77;15.27;;;;;;;;;;4980753;28;20027;-76
2022/03/26 08:32:26;;;;;;;20.40;14.05;;;;;;;;;;4973205;28;20042;-76
2022/03/26 08:34:52;;;;;;;19.90;14.23;;;;;;;;;;5025615;23;20050;-73
2022/03/26 08:37:17;;;;;;;21.90;14.98;;;;;;;;;;5006998;28;20032;-74
2022/03/26 08:39:43;;;;;;;21.45;14.50;;;;;;;;;;5006346;28;20038;-73
2022/03/26 08:42:08;;;;;;;26.30;15.80;;;;;;;;;;5007306;28;20037;-73
2022/03/26 08:44:33;;;;;;;24.15;14.88;;;;;;;;;;5006418;28;20395;-73
2022/03/26 08:47:02;;;;;;;25.88;14.77;;;;;;;;;;5008441;28;20038;-74
2022/03/26 08:49:28;;;;;;;29.95;15.25;;;;;;;;;;4988962;28;20662;-73
2022/03/26 08:51:54;;;;;;;23.75;15.07;;;;;;;;;;4990218;28;20105;-73
2022/03/26 08:54:19;;;;;;;23.20;14.23;;;;;;;;;;4988655;28;20125;-73
2022/03/26 08:56:44;;;;;;;25.25;15.80;;;;;;;;;;4990096;28;20061;-72
2022/03/26 08:59:10;;;;;;;25.13;15.65;;;;;;;;;;4990005;28;20087;-74
2022/03/26 09:01:36;;;;;;;26.63;16.67;;;;;;;;;;4996576;28;20026;-74
2022/03/26 09:04:02;;;;;;;24.00;15.93;;;;;;;;;;4999955;28;20477;-73
2022/03/26 09:06:28;;;;;;;24.20;15.45;;;;;;;;;;4997793;28;20153;-73
2022/03/26 09:08:53;;;;;;;25.38;18.05;;;;;;;;;;4989670;28;20055;-74
2022/03/26 09:11:18;;;;;;;22.47;16.73;;;;;;;;;;4989700;28;20057;-74
2022/03/26 09:13:45;;;;;;;29.63;19.95;;;;;;;;;;4989728;28;20768;-74
2022/03/26 09:16:10;;;;;;;25.70;15.38;;;;;;;;;;4989813;28;20093;-74
2022/03/26 09:18:35;;;;;;;25.58;16.35;;;;;;;;;;4989543;28;20432;-73
2022/03/26 09:21:01;;;;;;;23.97;15.63;;;;;;;;;;4989708;28;20026;-74
2022/03/26 09:23:26;;;;;;;24.67;15.70;;;;;;;;;;4989979;28;20272;-74
2022/03/26 09:25:51;;;;;;;27.17;15.50;;;;;;;;;;4989495;28;20358;-73
2022/03/26 09:28:17;;;;;;;27.05;16.70;;;;;;;;;;4989260;28;20276;-74
2022/03/26 09:30:42;;;;;;;22.02;16.25;;;;;;;;;;4989548;28;20398;-74
2022/03/26 09:33:08;;;;;;;24.27;15.03;;;;;;;;;;4988137;28;20030;-73
2022/03/26 09:35:33;;;;;;;23.73;16.27;;;;;;;;;;4989567;28;20351;-74
2022/03/26 09:37:59;;;;;;;26.77;16.67;;;;;;;;;;4989421;28;20105;-75
2022/03/26 09:40:25;;;;;;;24.92;15.90;;;;;;;;;;4989542;28;20030;-74
2022/03/26 09:42:52;;;;;;;22.13;16.20;;;;;;;;;;4989388;28;20037;-73
2022/03/26 09:45:17;;;;;;;21.95;15.52;;;;;;;;;;4989133;28;20034;-73
2022/03/26 09:47:43;;;;;;;21.85;15.90;;;;;;;;;;4989010;28;20046;-73
2022/03/26 09:50:10;;;;;;;24.08;15.65;;;;;;;;;;4989014;28;20050;-73
2022/03/26 09:52:36;;;;;;;19.92;15.25;;;;;;;;;;4989259;28;20026;-73
2022/03/26 09:55:03;;;;;;;26.23;17.00;;;;;;;;;;4988988;28;20502;-73
2022/03/26 09:57:29;;;;;;;21.90;15.52;;;;;;;;;;4991874;28;20088;-75
2022/03/26 09:59:55;;;;;;;25.83;16.40;;;;;;;;;;4993013;28;20030;-75
2022/03/26 10:02:20;;;;;;;22.83;14.98;;;;;;;;;;4993481;28;20371;-76
2022/03/26 10:04:46;;;;;;;22.33;15.07;;;;;;;;;;4993221;28;20030;-75
2022/03/26 10:07:11;;;;;;;22.47;16.57;;;;;;;;;;4995598;28;20493;-75
2022/03/26 10:09:38;;;;;;;22.80;15.55;;;;;;;;;;5007129;28;20275;-73
2022/03/26 10:12:06;;;;;;;20.65;15.73;;;;;;;;;;5009548;28;20053;-75
2022/03/26 10:14:44;;;;;;;20.05;14.98;;;;;;;;;;4992585;28;20030;-75
2022/03/26 10:17:13;;;;;;;25.88;15.75;;;;;;;;;;5001399;28;20109;-74
2022/03/26 10:19:48;;;;;;;23.70;16.83;;;;;;;;;;5012115;28;20025;-75
2022/03/26 10:22:38;;;;;;;22.27;16.00;;;;;;;;;;5012412;28;20415;-75
2022/03/26 10:25:10;;;;;;;24.40;16.10;;;;;;;;;;5012344;28;20036;-76
2022/03/26 10:27:48;;;;;;;25.05;15.30;;;;;;;;;;5009997;28;20034;-72
2022/03/26 10:30:15;;;;;;;28.13;15.90;;;;;;;;;;5008759;28;20438;-73
2022/03/26 10:32:46;;;;;;;24.75;15.98;;;;;;;;;;5008904;28;20026;-74
2022/03/26 10:35:14;;;;;;;24.98;16.15;;;;;;;;;;5009586;28;20038;-73
2022/03/26 10:37:48;;;;;;;23.58;15.98;;;;;;;;;;5009231;28;20109;-75
2022/03/26 10:40:29;;;;;;;24.25;15.90;;;;;;;;;;5002445;28;20034;-72
2022/03/26 10:42:57;;;;;;;24.75;15.73;;;;;;;;;;4989139;28;20034;-73
2022/03/26 10:45:23;;;;;;;24.40;15.30;;;;;;;;;;4989251;28;20494;-73
2022/03/26 10:47:52;;;;;;;24.55;15.57;;;;;;;;;;4989419;28;20507;-73
2022/03/26 10:50:18;;;;;;;22.88;16.23;;;;;;;;;;4988182;28;20153;-73
2022/03/26 10:52:43;;;;;;;24.75;15.68;;;;;;;;;;4988830;28;20060;-73
2022/03/26 10:55:16;;;;;;;20.80;15.30;;;;;;;;;;4989177;28;20388;-74
2022/03/26 10:57:46;;;;;;;22.73;13.88;;;;;;;;;;4989315;28;20050;-72
2022/03/26 11:00:17;;;;;;;25.48;15.70;;;;;;;;;;4988613;28;20029;-72
2022/03/26 11:02:43;;;;;;;24.38;16.73;;;;;;;;;;4988614;28;20446;-73
2022/03/26 11:05:10;;;;;;;22.75;16.60;;;;;;;;;;4989629;28;20108;-73
2022/03/26 11:07:37;;;;;;;27.75;17.58;;;;;;;;;;5002691;28;20117;-75
2022/03/26 11:10:08;;;;;;;27.95;16.77;;;;;;;;;;5010401;28;20046;-74
2022/03/26 11:12:35;;;;;;;22.85;16.92;;;;;;;;;;5011522;28;20061;-72
2022/03/26 11:15:02;;;;;;;25.08;15.52;;;;;;;;;;5011331;28;20037;-73
2022/03/26 11:17:56;;;;;;;21.73;15.20;;;;;;;;;;5011547;28;20267;-72
2022/03/26 11:20:43;;;;;;;24.25;14.10;;;;;;;;;;5011520;28;20092;-72
2022/03/26 11:23:11;;;;;;;27.40;15.55;;;;;;;;;;5010736;28;20026;-73
2022/03/26 11:25:45;;;;;;;23.17;14.68;;;;;;;;;;5010126;28;20021;-74
2022/03/26 11:28:27;;;;;;;26.90;14.60;;;;;;;;;;5009656;28;20033;-74
2022/03/26 11:31:04;;;;;;;23.48;14.68;;;;;;;;;;5011438;28;20033;-73
2022/03/26 11:33:34;;;;;;;24.95;15.68;;;;;;;;;;5009640;28;20034;-74
2022/03/26 11:36:02;;;;;;;25.63;15.07;;;;;;;;;;5007983;28;20026;-72
2022/03/26 11:38:29;;;;;;;24.90;15.48;;;;;;;;;;5010989;28;20040;-73
2022/03/26 11:41:02;;;;;;;27.25;15.75;;;;;;;;;;5010953;28;20026;-73
2022/03/26 11:43:42;;;;;;;25.23;15.18;;;;;;;;;;5010956;28;20112;-74
2022/03/26 11:51:49;;;;;;;22.85;15.60;;;;;;;;;;4991283;28;20040;-75
2022/03/26 11:54:15;;;;;;;29.65;18.00;;;;;;;;;;4991018;28;20097;-73
2022/03/26 11:56:42;;;;;;;29.42;16.52;;;;;;;;;;4991698;28;20525;-73
2022/03/26 11:59:16;;;;;;;26.50;15.30;;;;;;;;;;4991148;28;20033;-73
2022/03/26 12:01:47;;;;;;;26.48;15.65;;;;;;;;;;5017557;28;20144;-73
2022/03/26 12:04:15;;;;;;;25.58;14.70;;;;;;;;;;5010124;28;20026;-73
2022/03/26 12:07:01;;;;;;;26.30;14.18;;;;;;;;;;5010348;28;20037;-73
2022/03/26 12:09:38;;;;;;;24.77;15.48;;;;;;;;;;5007821;28;20041;-74
2022/03/26 12:12:12;;;;;;;26.20;15.90;;;;;;;;;;5007402;28;20042;-75
2022/03/26 12:15:05;;;;;;;23.25;14.75;;;;;;;;;;5016062;28;20527;-76
2022/03/26 12:17:46;;;;;;;27.48;16.20;;;;;;;;;;5004576;28;20338;-72
2022/03/26 12:20:23;;;;;;;24.65;14.38;;;;;;;;;;5009668;28;20026;-74
2022/03/26 12:22:50;;;;;;;26.80;15.57;;;;;;;;;;5010349;28;20034;-75
2022/03/26 12:25:18;;;;;;;23.75;14.68;;;;;;;;;;5010449;28;20025;-76
2022/03/26 12:27:44;;;;;;;25.27;14.93;;;;;;;;;;5010083;28;20029;-74
2022/03/26 12:30:10;;;;;;;26.58;14.52;;;;;;;;;;5009746;28;20030;-72
2022/03/26 12:32:36;;;;;;;24.02;14.82;;;;;;;;;;5009977;28;20040;-75
2022/03/26 12:35:05;;;;;;;23.65;12.15;;;;;;;;;;5009798;28;20434;-72
2022/03/26 12:37:31;;;;;;;23.05;13.07;;;;;;;;;;5009754;28;20030;-74
2022/03/26 12:39:56;;;;;;;24.73;14.60;;;;;;;;;;5010259;28;20037;-72
2022/03/26 12:42:23;;;;;;;20.20;12.35;;;;;;;;;;5010250;28;20030;-74
2022/03/26 12:44:49;;;;;;;20.77;12.73;;;;;;;;;;5009398;28;20034;-76
2022/03/26 12:47:26;;;;;;;19.95;11.77;;;;;;;;;;5009879;28;20030;-74
2022/03/26 12:49:54;;;;;;;21.10;12.32;;;;;;;;;;5009224;28;20030;-73
2022/03/26 12:52:24;;;;;;;23.92;12.43;;;;;;;;;;5009344;28;20040;-74
2022/03/26 12:54:57;;;;;;;23.00;14.30;;;;;;;;;;5009251;28;20108;-74
2022/03/26 12:57:23;;;;;;;24.63;14.57;;;;;;;;;;5009607;28;20034;-73
2022/03/26 12:59:52;;;;;;;24.15;13.35;;;;;;;;;;5009667;28;20537;-71
2022/03/26 13:02:18;;;;;;;24.40;14.95;;;;;;;;;;5009220;28;20129;-74
2022/03/26 13:04:43;;;;;;;20.63;12.48;;;;;;;;;;5010069;28;20113;-75
2022/03/26 13:07:08;;;;;;;24.25;13.23;;;;;;;;;;5010786;28;20021;-77
2022/03/26 13:09:34;;;;;;;26.17;16.20;;;;;;;;;;5009822;28;20025;-72
2022/03/26 13:11:59;;;;;;;23.25;12.77;;;;;;;;;;5009457;28;20391;-69
2022/03/26 13:14:25;;;;;;;23.25;16.45;;;;;;;;;;5009593;28;20029;-73
2022/03/26 13:16:52;;;;;;;22.20;12.90;;;;;;;;;;5009665;28;20107;-74
2022/03/26 13:19:18;;;;;;;21.83;12.65;;;;;;;;;;5009425;28;20030;-74
2022/03/26 13:21:46;;;;;;;21.50;11.90;;;;;;;;;;5009921;28;20120;-74
2022/03/26 13:24:14;;;;;;;21.27;11.93;;;;;;;;;;5009196;28;20034;-73
2022/03/26 13:26:47;;;;;;;23.05;12.27;;;;;;;;;;5009357;28;20036;-74
2022/03/26 13:29:16;;;;;;;28.55;12.63;;;;;;;;;;5009274;28;20480;-75
2022/03/26 13:31:45;;;;;;;21.45;12.18;;;;;;;;;;5008240;28;20143;-77
2022/03/26 13:34:11;;;;;;;22.80;10.90;;;;;;;;;;5008829;28;20257;-73
2022/03/26 13:36:37;;;;;;;25.65;11.60;;;;;;;;;;5009121;28;20030;-74
2022/03/26 13:39:16;;;;;;;22.65;11.02;;;;;;;;;;5008925;28;20038;-75
2022/03/26 13:41:41;;;;;;;21.95;10.98;;;;;;;;;;5009147;28;20433;-75
2022/03/26 13:44:07;;;;;;;17.63;10.43;;;;;;;;;;5009039;28;20026;-74
2022/03/26 13:46:35;;;;;;;21.02;10.93;;;;;;;;;;5009471;28;20109;-72
2022/03/26 13:49:00;;;;;;;22.30;11.77;;;;;;;;;;5009394;28;20034;-72
2022/03/26 13:51:30;;;;;;;20.35;11.60;;;;;;;;;;5009154;28;20032;-74
2022/03/26 13:53:59;;;;;;;20.17;11.43;;;;;;;;;;5007473;28;20048;-71
2022/03/26 13:56:26;;;;;;;17.98;10.82;;;;;;;;;;5007591;28;20022;-74
2022/03/26 13:58:52;;;;;;;17.13;10.85;;;;;;;;;;5008799;28;20100;-73
2022/03/26 14:01:21;;;;;;;22.88;10.93;;;;;;;;;;5008943;28;20113;-70
2022/03/26 14:03:57;;;;;;;18.52;9.82;;;;;;;;;;5008701;28;20044;-75
2022/03/26 14:06:22;;;;;;;23.30;11.00;;;;;;;;;;5008821;28;20037;-73
2022/03/26 14:08:47;;;;;;;19.55;10.07;;;;;;;;;;5008456;28;20030;-75
2022/03/26 14:11:14;;;;;;;17.25;9.63;;;;;;;;;;5008798;28;20033;-75
2022/03/26 14:13:40;;;;;;;18.88;10.27;;;;;;;;;;5008702;28;20057;-75
2022/03/26 14:16:05;;;;;;;16.95;10.07;;;;;;;;;;5008784;28;20034;-71
2022/03/26 14:18:30;;;;;;;18.08;9.52;;;;;;;;;;5008513;28;20060;-75
2022/03/26 14:20:55;;;;;;;14.65;9.55;;;;;;;;;;5008803;28;20022;-77